createdAt,value
2018-04-06T00:01:01.339Z,89.62
2018-04-06T00:01:46.703Z,89.43
2018-04-06T00:02:46.715Z,89.25
2018-04-06T00:03:46.729Z,89.62
2018-04-06T00:04:46.493Z,89.58
2018-04-06T00:06:46.783Z,89.62
2018-04-06T00:09:46.830Z,89.58
2018-04-06T00:10:46.846Z,89.29
2018-04-06T00:11:46.962Z,89.39
2018-04-06T00:12:46.878Z,89.11
2018-04-06T00:13:46.899Z,90.05
2018-04-06T00:14:46.912Z,90.1
2018-04-06T00:16:01.588Z,89.86
2018-04-06T00:16:46.946Z,89.86
2018-04-06T00:17:47.053Z,90.15
2018-04-06T00:18:46.978Z,90.24
2018-04-06T00:19:46.995Z,90.15
2018-04-06T00:20:46.753Z,90.53
2018-04-06T00:23:47.066Z,90.15
2018-04-06T00:24:47.079Z,90.81
2018-04-06T00:25:47.093Z,90.81
2018-04-06T00:26:47.111Z,91
2018-04-06T00:27:47.134Z,91.09
2018-04-06T00:28:47.143Z,90.91
2018-04-06T00:29:47.161Z,91.09
2018-04-06T00:30:47.176Z,90.91
2018-04-06T00:31:47.196Z,91.47
2018-04-06T00:32:47.208Z,91.76
2018-04-06T00:33:47.225Z,91.19
2018-04-06T00:34:47.241Z,91.57
2018-04-06T00:35:47.260Z,92.14
2018-04-06T00:36:47.273Z,91.85
2018-04-06T00:37:47.031Z,92.23
2018-04-06T00:39:47.325Z,92.61
2018-04-06T00:40:47.338Z,92.42
2018-04-06T00:41:47.364Z,92.42
2018-04-06T00:42:47.375Z,92.9
2018-04-06T00:43:47.386Z,92.8
2018-04-06T00:44:47.407Z,92.61
2018-04-06T00:45:47.420Z,92.61
2018-04-06T00:46:47.437Z,92.52
2018-04-06T00:48:02.113Z,92.23
2018-04-06T00:48:47.472Z,92.61
2018-04-06T00:49:47.484Z,93.08
2018-04-06T00:50:47.499Z,93.08
2018-04-06T00:51:47.261Z,92.99
2018-04-06T00:52:47.534Z,92.52
2018-04-06T00:54:47.569Z,92.99
2018-04-06T00:55:47.583Z,92.9
2018-04-06T00:56:47.600Z,93.08
2018-04-06T00:57:47.616Z,92.8
2018-04-06T00:58:47.631Z,93.46
2018-04-06T00:59:47.388Z,92.8
2018-04-06T01:00:47.666Z,93.46
2018-04-06T01:01:47.419Z,93.56
2018-04-06T01:02:47.701Z,93.37
2018-04-06T01:04:02.370Z,93.18
2018-04-06T01:05:47.749Z,93.94
2018-04-06T01:06:47.758Z,93.75
2018-04-06T01:07:47.777Z,93.94
2018-04-06T01:11:47.582Z,94.23
2018-04-06T01:12:47.597Z,94.04
2018-04-06T01:14:47.630Z,94.42
2018-04-06T01:15:47.905Z,94.42
2018-04-06T01:16:47.924Z,93.94
2018-04-06T01:17:47.941Z,94.42
2018-04-06T01:18:47.953Z,94.42
2018-04-06T01:20:02.627Z,94.79
2018-04-06T01:20:47.992Z,94.32
2018-04-06T01:21:48.002Z,94.51
2018-04-06T01:22:48.019Z,94.98
2018-04-06T01:23:48.034Z,95.07
2018-04-06T01:24:48.050Z,95.07
2018-04-06T01:25:48.066Z,95.17
2018-04-06T01:27:48.100Z,94.89
2018-04-06T01:28:48.115Z,95.17
2018-04-06T01:29:48.131Z,95.26
2018-04-06T01:30:48.146Z,95.74
2018-04-06T01:31:48.161Z,95.84
2018-04-06T01:32:48.179Z,95.65
2018-04-06T01:33:48.199Z,95.74
2018-04-06T01:34:48.210Z,95.36
2018-04-06T01:36:02.884Z,95.65
2018-04-06T01:36:48.246Z,95.84
2018-04-06T01:37:48.260Z,95.74
2018-04-06T01:38:48.274Z,96.41
2018-04-06T01:39:48.291Z,95.74
2018-04-06T01:40:48.309Z,95.93
2018-04-06T01:41:48.063Z,96.22
2018-04-06T01:42:48.345Z,95.93
2018-04-06T01:43:48.356Z,96.5
2018-04-06T01:44:48.112Z,96.12
2018-04-06T01:45:48.397Z,96.5
2018-04-06T01:46:48.403Z,96.12
2018-04-06T01:47:48.419Z,96.59
2018-04-06T01:48:48.179Z,96.41
2018-04-06T01:49:48.193Z,96.5
2018-04-06T01:51:03.126Z,96.59
2018-04-06T01:51:48.224Z,96.83
2018-04-06T01:52:48.240Z,96.45
2018-04-06T01:54:48.532Z,97.11
2018-04-06T01:55:48.547Z,97.3
2018-04-06T01:56:48.303Z,97.4
2018-04-06T01:57:48.320Z,97.78
2018-04-06T01:58:48.597Z,97.68
2018-04-06T02:00:48.640Z,97.02
2018-04-06T02:01:48.643Z,97.78
2018-04-06T02:02:48.658Z,97.87
2018-04-06T02:03:48.678Z,97.59
2018-04-06T02:04:48.692Z,97.54
2018-04-06T02:05:48.715Z,97.49
2018-04-06T02:06:48.726Z,97.68
2018-04-06T02:07:48.739Z,97.49
2018-04-06T02:08:48.756Z,97.78
2018-04-06T02:09:48.770Z,98.25
2018-04-06T02:10:48.785Z,98.25
2018-04-06T02:11:48.801Z,97.78
2018-04-06T02:12:48.820Z,98.25
2018-04-06T02:13:48.575Z,98.54
2018-04-06T02:15:48.869Z,98.63
2018-04-06T02:16:48.880Z,98.82
2018-04-06T02:17:48.898Z,98.72
2018-04-06T02:18:48.913Z,98.72
2018-04-06T02:19:48.989Z,98.72
2018-04-06T02:20:48.944Z,98.63
2018-04-06T02:21:48.976Z,98.82
2018-04-06T02:23:03.634Z,98.63
2018-04-06T02:23:48.992Z,98.63
2018-04-06T02:25:49.023Z,99.1
2018-04-06T02:26:49.039Z,99.29
2018-04-06T02:27:49.057Z,99.58
2018-04-06T02:28:48.811Z,99.48
2018-04-06T02:29:48.827Z,99.29
2018-04-06T02:30:49.103Z,99.29
2018-04-06T02:31:49.120Z,99.86
2018-04-06T02:32:49.135Z,99.48
2018-04-06T02:33:49.151Z,99.67
2018-04-06T02:34:49.166Z,99.96
2018-04-06T02:35:49.183Z,99.96
2018-04-06T02:36:48.986Z,99.99
2018-04-06T02:37:49.213Z,99.99
2018-04-06T02:39:03.886Z,99.86
2018-04-06T02:39:49.246Z,99.58
2018-04-06T02:41:49.278Z,99.99
2018-04-06T02:42:49.297Z,99.99
2018-04-06T02:43:49.316Z,99.99
2018-04-06T02:44:49.327Z,99.99
2018-04-06T02:46:49.355Z,99.99
2018-04-06T02:47:49.372Z,99.99
2018-04-06T02:48:49.388Z,99.99
2018-04-06T02:49:49.405Z,99.99
2018-04-06T02:50:49.430Z,99.99
2018-04-06T02:51:49.431Z,99.99
2018-04-06T02:52:49.462Z,99.99
2018-04-06T02:53:49.473Z,99.99
2018-04-06T02:55:04.149Z,99.99
2018-04-06T02:55:49.499Z,99.99
2018-04-06T02:56:49.514Z,99.99
2018-04-06T02:57:49.277Z,99.99
2018-04-06T02:58:49.598Z,99.99
2018-04-06T03:00:49.581Z,99.99
2018-04-06T03:01:49.605Z,99.99
2018-04-06T03:02:49.610Z,99.99
2018-04-06T03:03:49.626Z,99.99
2018-04-06T03:04:49.638Z,99.99
2018-04-06T03:06:49.667Z,99.99
2018-04-06T03:07:49.682Z,99.99
2018-04-06T03:08:49.698Z,99.99
2018-04-06T03:09:49.717Z,99.99
2018-04-06T03:11:04.386Z,99.99
2018-04-06T03:11:49.487Z,99.99
2018-04-06T03:12:49.764Z,99.99
2018-04-06T03:13:49.776Z,99.99
2018-04-06T03:14:49.534Z,99.99
2018-04-06T03:15:49.806Z,99.99
2018-04-06T03:17:49.839Z,99.99
2018-04-06T03:18:49.854Z,99.99
2018-04-06T03:19:49.870Z,99.99
2018-04-06T03:20:49.883Z,99.99
2018-04-06T03:21:49.899Z,99.99
2018-04-06T03:22:49.914Z,99.99
2018-04-06T03:23:49.932Z,99.99
2018-04-06T03:24:49.947Z,99.99
2018-04-06T03:26:04.622Z,99.99
2018-04-06T03:26:49.979Z,99.99
2018-04-06T03:27:49.992Z,99.99
2018-04-06T03:28:49.754Z,99.99
2018-04-06T03:29:50.026Z,99.99
2018-04-06T03:30:49.784Z,99.99
2018-04-06T03:31:50.059Z,99.99
2018-04-06T03:32:49.812Z,99.99
2018-04-06T03:33:50.089Z,99.99
2018-04-06T03:34:50.102Z,99.99
2018-04-06T03:35:49.860Z,99.99
2018-04-06T03:36:50.132Z,99.99
2018-04-06T03:37:49.892Z,99.99
2018-04-06T03:38:50.316Z,99.99
2018-04-06T03:39:50.180Z,99.99
2018-04-06T03:40:50.248Z,99.99
2018-04-06T03:41:50.365Z,99.99
2018-04-06T03:42:50.225Z,99.99
2018-04-06T03:44:50.260Z,99.99
2018-04-06T03:45:50.272Z,99.99
2018-04-06T03:46:50.289Z,99.99
2018-04-06T03:49:50.339Z,99.99
2018-04-06T03:50:50.356Z,99.99
2018-04-06T03:51:50.365Z,99.99
2018-04-06T03:52:50.124Z,99.99
2018-04-06T03:53:50.402Z,99.99
2018-04-06T03:54:50.412Z,99.99
2018-04-06T03:55:50.429Z,99.99
2018-04-06T03:56:50.443Z,99.99
2018-04-06T03:58:05.116Z,99.99
2018-04-06T03:58:50.475Z,99.99
2018-04-06T03:59:50.494Z,99.99
2018-04-06T04:01:50.522Z,99.99
2018-04-06T04:02:50.534Z,99.99
2018-04-06T04:03:50.554Z,99.99
2018-04-06T04:04:50.565Z,99.99
2018-04-06T04:06:50.598Z,99.99
2018-04-06T04:07:50.611Z,99.99
2018-04-06T04:08:50.368Z,99.99
2018-04-06T04:09:50.644Z,99.99
2018-04-06T04:10:50.661Z,99.99
2018-04-06T04:11:50.676Z,99.99
2018-04-06T04:12:50.689Z,99.99
2018-04-06T04:14:05.362Z,99.99
2018-04-06T04:14:50.463Z,99.99
2018-04-06T04:15:50.737Z,99.99
2018-04-06T04:16:50.757Z,99.99
2018-04-06T04:17:50.767Z,99.99
2018-04-06T04:18:50.780Z,99.99
2018-04-06T04:19:50.797Z,99.99
2018-04-06T04:20:50.821Z,99.99
2018-04-06T04:21:50.828Z,99.99
2018-04-06T04:22:50.849Z,99.99
2018-04-06T04:24:50.874Z,99.99
2018-04-06T04:25:50.890Z,99.99
2018-04-06T04:26:50.904Z,99.99
2018-04-06T04:27:50.921Z,99.99
2018-04-06T04:28:50.944Z,99.99
2018-04-06T04:30:05.609Z,99.99
2018-04-06T04:30:50.974Z,99.99
2018-04-06T04:31:50.985Z,99.99
2018-04-06T04:32:50.999Z,99.99
2018-04-06T04:33:51.017Z,99.99
2018-04-06T04:34:51.028Z,99.99
2018-04-06T04:35:51.044Z,99.99
2018-04-06T04:37:51.078Z,99.99
2018-04-06T04:38:50.833Z,99.99
2018-04-06T04:39:51.112Z,99.99
2018-04-06T04:40:51.121Z,99.99
2018-04-06T04:41:51.136Z,99.99
2018-04-06T04:42:51.151Z,99.99
2018-04-06T04:43:51.167Z,99.99
2018-04-06T04:44:51.182Z,99.99
2018-04-06T04:46:05.856Z,99.99
2018-04-06T04:46:51.214Z,99.99
2018-04-06T04:47:51.230Z,99.99
2018-04-06T04:48:50.986Z,99.99
2018-04-06T04:50:51.281Z,99.99
2018-04-06T04:51:51.294Z,99.99
2018-04-06T04:52:51.310Z,99.99
2018-04-06T04:54:51.339Z,99.99
2018-04-06T04:55:51.352Z,99.99
2018-04-06T04:56:51.110Z,99.99
2018-04-06T04:57:51.384Z,99.99
2018-04-06T04:58:51.146Z,99.99
2018-04-06T04:59:51.416Z,99.99
2018-04-06T05:01:06.091Z,99.99
2018-04-06T05:01:51.448Z,99.99
2018-04-06T05:02:51.463Z,99.99
2018-04-06T05:03:51.480Z,99.99
2018-04-06T05:04:51.237Z,99.99
2018-04-06T05:05:51.513Z,99.99
2018-04-06T05:06:51.527Z,99.99
2018-04-06T05:07:51.284Z,99.99
2018-04-06T05:08:51.560Z,99.99
2018-04-06T05:10:51.596Z,99.99
2018-04-06T05:11:51.608Z,99.99
2018-04-06T05:12:51.632Z,99.99
2018-04-06T05:13:51.639Z,99.99
2018-04-06T05:14:51.656Z,99.99
2018-04-06T05:15:51.673Z,99.99
2018-04-06T05:16:51.707Z,99.99
2018-04-06T05:17:51.706Z,99.99
2018-04-06T05:18:51.721Z,99.99
2018-04-06T05:19:51.738Z,99.87
2018-04-06T05:20:51.756Z,98.07
2018-04-06T05:21:51.777Z,96.83
2018-04-06T05:22:51.792Z,95.41
2018-04-06T05:24:51.829Z,95.27
2018-04-06T05:25:51.584Z,94.98
2018-04-06T05:26:51.860Z,94.23
2018-04-06T05:27:51.878Z,92.71
2018-04-06T05:28:51.638Z,92.52
2018-04-06T05:29:51.915Z,91.47
2018-04-06T05:30:51.935Z,91.28
2018-04-06T05:31:51.953Z,90.85
2018-04-06T05:33:06.638Z,91.09
2018-04-06T05:33:52.000Z,90.9
2018-04-06T05:34:52.011Z,90.57
2018-04-06T05:35:52.033Z,89.9
2018-04-06T05:36:52.050Z,89.9
2018-04-06T05:37:52.074Z,89.14
2018-04-06T05:38:52.373Z,87.48
2018-04-06T05:39:52.109Z,87.29
2018-04-06T05:40:52.128Z,86.63
2018-04-06T05:41:52.151Z,86.43
2018-04-06T05:42:52.170Z,86.34
2018-04-06T05:43:52.192Z,86.63
2018-04-06T05:44:51.951Z,86.53
2018-04-06T05:45:52.231Z,86.43
2018-04-06T05:46:51.993Z,85.86
2018-04-06T05:47:52.272Z,85.3
2018-04-06T05:49:06.954Z,85.43
2018-04-06T05:49:52.057Z,85.34
2018-04-06T05:50:52.336Z,83.72
2018-04-06T05:51:52.358Z,82.96
2018-04-06T05:52:52.382Z,82.96
2018-04-06T05:53:52.149Z,82.43
2018-04-06T05:54:52.425Z,81.48
2018-04-06T05:56:52.470Z,80.29
2018-04-06T05:57:52.493Z,78.42
2018-04-06T05:58:52.515Z,77.19
2018-04-06T05:59:52.540Z,76.27
2018-04-06T06:00:52.304Z,74.84
2018-04-06T06:01:52.588Z,74.79
2018-04-06T06:02:52.612Z,73.07
2018-04-06T06:03:52.637Z,72.12
2018-04-06T06:05:07.321Z,72.41
2018-04-06T06:05:52.686Z,72.78
2018-04-06T06:06:52.711Z,72.31
2018-04-06T06:07:52.737Z,72.65
2018-04-06T06:08:52.761Z,72.85
2018-04-06T06:09:52.856Z,72.21
2018-04-06T06:10:52.813Z,72.21
2018-04-06T06:11:52.844Z,71.2
2018-04-06T06:12:52.865Z,70.34
2018-04-06T06:13:52.633Z,69.52
2018-04-06T06:14:52.921Z,68.47
2018-04-06T06:15:52.947Z,67.99
2018-04-06T06:16:52.972Z,68.44
2018-04-06T06:17:53.082Z,68.53
2018-04-06T06:18:53.037Z,67.23
2018-04-06T06:19:53.055Z,66.75
2018-04-06T06:21:07.744Z,67.14
2018-04-06T06:21:53.114Z,66.66
2018-04-06T06:22:53.137Z,66.75
2018-04-06T06:23:53.165Z,67.23
2018-04-06T06:24:53.192Z,65.36
2018-04-06T06:25:53.223Z,65.07
2018-04-06T06:26:52.990Z,65.45
2018-04-06T06:27:53.277Z,64.72
2018-04-06T06:28:53.312Z,63.86
2018-04-06T06:29:53.077Z,63.76
2018-04-06T06:30:53.364Z,63.2
2018-04-06T06:31:53.396Z,63.57
2018-04-06T06:32:53.434Z,63.86
2018-04-06T06:33:53.452Z,63.1
2018-04-06T06:34:53.486Z,62.91
2018-04-06T06:36:08.173Z,63.1
2018-04-06T06:36:53.605Z,62.78
2018-04-06T06:37:53.570Z,62.52
2018-04-06T06:38:53.608Z,62.81
2018-04-06T06:39:53.636Z,64.12
2018-04-06T06:40:53.660Z,63.92
2018-04-06T06:41:53.700Z,63.1
2018-04-06T06:42:53.831Z,63
2018-04-06T06:43:53.755Z,62.05
2018-04-06T06:44:53.522Z,62.05
2018-04-06T06:45:53.814Z,61.32
2018-04-06T06:46:53.841Z,60.74
2018-04-06T06:47:53.879Z,59.91
2018-04-06T06:48:53.907Z,59.63
2018-04-06T06:49:53.674Z,59.05
2018-04-06T06:50:53.965Z,59.63
2018-04-06T06:51:53.998Z,59.24
2018-04-06T06:52:54.026Z,59.08
2018-04-06T06:53:54.058Z,58.03
2018-04-06T06:55:54.118Z,59.08
2018-04-06T06:56:53.892Z,58.61
2018-04-06T06:57:54.181Z,58.8
2018-04-06T06:58:54.214Z,57.75
2018-04-06T07:00:54.278Z,57.48
2018-04-06T07:01:54.314Z,57.2
2018-04-06T07:02:54.344Z,57.2
2018-04-06T07:03:54.373Z,57.1
2018-04-06T07:04:54.403Z,55.96
2018-04-06T07:05:54.442Z,54.74
2018-04-06T07:06:54.467Z,55.96
2018-04-06T07:08:09.160Z,55.69
2018-04-06T07:08:54.530Z,54.9
2018-04-06T07:09:54.564Z,55.19
2018-04-06T07:10:54.592Z,54.61
2018-04-06T07:11:54.367Z,54.33
2018-04-06T07:12:54.402Z,54.8
2018-04-06T07:13:54.689Z,54.61
2018-04-06T07:14:54.720Z,55.1
2018-04-06T07:15:54.753Z,55.74
2018-04-06T07:16:54.788Z,55
2018-04-06T07:17:54.818Z,54.64
2018-04-06T07:18:54.691Z,54.61
2018-04-06T07:19:54.883Z,55.31
2018-04-06T07:20:54.916Z,54.55
2018-04-06T07:21:54.946Z,53.88
2018-04-06T07:22:54.719Z,53.3
2018-04-06T07:24:09.673Z,52.95
2018-04-06T07:24:55.044Z,53.02
2018-04-06T07:25:55.084Z,52.25
2018-04-06T07:26:54.849Z,51.79
2018-04-06T07:27:54.881Z,51.61
2018-04-06T07:28:55.175Z,51.99
2018-04-06T07:29:55.204Z,51.87
2018-04-06T07:30:55.238Z,51.75
2018-04-06T07:31:55.009Z,51.93
2018-04-06T07:32:55.041Z,52.34
2018-04-06T07:33:55.332Z,52.25
2018-04-06T07:34:55.364Z,52.54
2018-04-06T07:35:55.396Z,51.87
2018-04-06T07:36:55.428Z,52.63
2018-04-06T07:37:55.467Z,52.7
2018-04-06T07:38:55.493Z,51.77
2018-04-06T07:40:10.191Z,51.87
2018-04-06T07:40:55.297Z,52.29
2018-04-06T07:41:55.588Z,53.06
2018-04-06T07:42:55.362Z,52.7
2018-04-06T07:43:55.651Z,51.87
2018-04-06T07:44:55.687Z,51.39
2018-04-06T07:47:55.778Z,49.95
2018-04-06T07:48:55.550Z,49.88
2018-04-06T07:49:55.841Z,49.81
2018-04-06T07:50:55.871Z,49.52
2018-04-06T07:51:55.645Z,48.85
2018-04-06T07:52:55.937Z,49.05
2018-04-06T07:53:55.968Z,48.85
2018-04-06T07:54:56.000Z,49.11
2018-04-06T07:56:10.691Z,50.24
2018-04-06T07:56:56.102Z,50.05
2018-04-06T07:57:56.092Z,51.03
2018-04-06T07:58:56.122Z,49.98
2018-04-06T08:00:56.186Z,50.46
2018-04-06T08:01:55.962Z,49.79
2018-04-06T08:02:55.988Z,49.4
2018-04-06T08:03:56.294Z,49.4
2018-04-06T08:04:56.310Z,49.02
2018-04-06T08:05:56.346Z,49.02
2018-04-06T08:06:56.113Z,48.73
2018-04-06T08:07:56.412Z,47.71
2018-04-06T08:08:56.433Z,48.93
2018-04-06T08:09:56.464Z,48.83
2018-04-06T08:11:11.157Z,49.05
2018-04-06T08:11:56.526Z,49.6
2018-04-06T08:12:56.563Z,49.88
2018-04-06T08:13:56.328Z,49.02
2018-04-06T08:14:56.619Z,48.38
2018-04-06T08:15:56.648Z,48.85
2018-04-06T08:16:56.680Z,48.44
2018-04-06T08:18:56.741Z,48.85
2018-04-06T08:19:56.770Z,48.38
2018-04-06T08:20:56.810Z,48.47
2018-04-06T08:21:56.569Z,47.73
2018-04-06T08:22:56.857Z,47.32
2018-04-06T08:23:56.889Z,47.22
2018-04-06T08:24:56.923Z,49.11
2018-04-06T08:25:56.689Z,47.92
2018-04-06T08:26:56.990Z,47.61
2018-04-06T08:27:57.009Z,46.29
2018-04-06T08:28:57.041Z,46.48
2018-04-06T08:29:56.808Z,46.1
2018-04-06T08:30:57.100Z,46.77
2018-04-06T08:31:57.132Z,47.25
2018-04-06T08:32:57.160Z,46.6
2018-04-06T08:34:57.281Z,46.89
2018-04-06T08:35:57.248Z,46.96
2018-04-06T08:36:57.279Z,46.98
2018-04-06T08:37:57.308Z,46.03
2018-04-06T08:38:57.333Z,44.59
2018-04-06T08:39:57.368Z,44.68
2018-04-06T08:40:57.412Z,45.74
2018-04-06T08:41:57.425Z,45.93
2018-04-06T08:43:12.115Z,45.14
2018-04-06T08:43:57.484Z,45.26
2018-04-06T08:44:57.514Z,46.77
2018-04-06T08:45:57.283Z,46.79
2018-04-06T08:46:57.575Z,44.87
2018-04-06T08:47:57.601Z,45.33
2018-04-06T08:48:57.633Z,45.04
2018-04-06T08:49:57.399Z,43.91
2018-04-06T08:50:57.691Z,43.82
2018-04-06T08:51:57.720Z,43.44
2018-04-06T08:52:57.750Z,44.3
2018-04-06T08:53:57.779Z,44.56
2018-04-06T08:54:57.806Z,43.23
2018-04-06T08:55:57.835Z,42.17
2018-04-06T08:56:57.862Z,43.13
2018-04-06T08:57:57.893Z,43.51
2018-04-06T08:59:12.583Z,43.13
2018-04-06T08:59:57.980Z,43.08
2018-04-06T09:00:57.979Z,44.38
2018-04-06T09:01:58.016Z,46.37
2018-04-06T09:02:58.038Z,46.84
2018-04-06T09:03:58.066Z,47.13
2018-04-06T09:04:58.101Z,45.62
2018-04-06T09:06:58.153Z,45.62
2018-04-06T09:07:57.924Z,46.48
2018-04-06T09:08:58.225Z,47.23
2018-04-06T09:09:58.239Z,46.48
2018-04-06T09:10:58.265Z,45.86
2018-04-06T09:11:58.293Z,46.05
2018-04-06T09:12:58.324Z,43.95
2018-04-06T09:13:58.349Z,44.88
2018-04-06T09:15:13.037Z,45.15
2018-04-06T09:15:58.405Z,46.03
2018-04-06T09:16:58.433Z,46.41
2018-04-06T09:17:58.460Z,45.57
2018-04-06T09:18:58.492Z,44.81
2018-04-06T09:19:58.519Z,44.93
2018-04-06T09:22:58.599Z,43.3
2018-04-06T09:23:58.627Z,43.66
2018-04-06T09:25:58.681Z,42.99
2018-04-06T09:26:58.708Z,43.47
2018-04-06T09:27:58.740Z,44.12
2018-04-06T09:28:58.764Z,44.12
2018-04-06T09:29:58.532Z,44.23
2018-04-06T09:31:13.480Z,43.97
2018-04-06T09:31:58.851Z,43.87
2018-04-06T09:32:58.615Z,43.7
2018-04-06T09:33:58.901Z,42.17
2018-04-06T09:34:58.929Z,41.31
2018-04-06T09:35:58.955Z,42.63
2018-04-06T09:36:58.724Z,42.05
2018-04-06T09:37:59.017Z,42.05
2018-04-06T09:39:59.069Z,42.14
2018-04-06T09:40:59.099Z,42.17
2018-04-06T09:41:59.124Z,41.78
2018-04-06T09:42:59.149Z,41.19
2018-04-06T09:43:59.173Z,41.19
2018-04-06T09:44:59.201Z,41.84
2018-04-06T09:46:13.889Z,43.1
2018-04-06T09:46:59.254Z,42.91
2018-04-06T09:47:59.282Z,42.27
2018-04-06T09:48:59.052Z,42.22
2018-04-06T09:49:59.339Z,43.66
2018-04-06T09:50:59.370Z,43.68
2018-04-06T09:51:59.392Z,43.01
2018-04-06T09:52:59.418Z,41.71
2018-04-06T09:55:59.498Z,42.19
2018-04-06T09:56:59.526Z,42.36
2018-04-06T09:57:59.553Z,42.77
2018-04-06T09:58:59.578Z,40.56
2018-04-06T09:59:59.605Z,39.5
2018-04-06T10:00:59.634Z,40.44
2018-04-06T10:01:59.661Z,40.73
2018-04-06T10:02:59.428Z,40.44
2018-04-06T10:03:59.712Z,40.83
2018-04-06T10:04:59.745Z,41.23
2018-04-06T10:05:59.767Z,40.64
2018-04-06T10:06:59.794Z,41.31
2018-04-06T10:07:59.562Z,41.02
2018-04-06T10:10:59.903Z,40.84
2018-04-06T10:11:59.930Z,40.06
2018-04-06T10:12:59.953Z,41.78
2018-04-06T10:13:59.980Z,40.08
2018-04-06T10:15:00.009Z,41.31
2018-04-06T10:16:00.040Z,40.83
2018-04-06T10:17:00.059Z,40.73
2018-04-06T10:18:14.747Z,41.77
2018-04-06T10:19:00.116Z,41.67
2018-04-06T10:20:00.139Z,40.61
2018-04-06T10:21:00.178Z,41.91
2018-04-06T10:22:00.291Z,43.35
2018-04-06T10:23:00.218Z,41.82
2018-04-06T10:24:00.244Z,42.93
2018-04-06T10:25:00.283Z,43.5
2018-04-06T10:26:00.296Z,44.81
2018-04-06T10:27:00.324Z,45.58
2018-04-06T10:28:00.094Z,45.67
2018-04-06T10:29:00.378Z,44.62
2018-04-06T10:30:00.455Z,45.56
2018-04-06T10:31:00.428Z,45.2
2018-04-06T10:32:00.459Z,45.77
2018-04-06T10:33:00.477Z,47.87
2018-04-06T10:34:15.165Z,46.75
2018-04-06T10:35:00.531Z,46.44
2018-04-06T10:36:00.297Z,47.58
2018-04-06T10:37:00.595Z,47.49
2018-04-06T10:38:00.612Z,48.25
2018-04-06T10:39:00.373Z,46.92
2018-04-06T10:40:00.657Z,47.2
2018-04-06T10:41:00.686Z,47.3
2018-04-06T10:43:00.733Z,46.82
2018-04-06T10:44:00.757Z,46.46
2018-04-06T10:45:00.798Z,46.15
2018-04-06T10:46:00.809Z,45.96
2018-04-06T10:47:00.833Z,46.34
2018-04-06T10:48:00.607Z,45.58
2018-04-06T10:49:00.883Z,45.58
2018-04-06T10:50:15.568Z,44.34
2018-04-06T10:51:00.936Z,44.15
2018-04-06T10:52:00.957Z,44.15
2018-04-06T10:53:00.983Z,44.89
2018-04-06T10:58:01.105Z,47.56
2018-04-06T10:59:00.877Z,47.94
2018-04-06T11:00:01.154Z,47.58
2018-04-06T11:01:01.179Z,47.3
2018-04-06T11:02:01.207Z,46.44
2018-04-06T11:03:01.226Z,47.3
2018-04-06T11:04:01.250Z,49.3
2018-04-06T11:05:01.274Z,49.49
2018-04-06T11:06:15.958Z,48.07
2018-04-06T11:07:01.064Z,48.25
2018-04-06T11:08:01.355Z,47.3
2018-04-06T11:09:01.371Z,45.2
2018-04-06T11:10:01.136Z,43.66
2018-04-06T11:11:01.428Z,44.15
2018-04-06T11:12:01.190Z,43.95
2018-04-06T11:14:01.231Z,46.13
2018-04-06T11:15:01.255Z,47.75
2018-04-06T11:16:01.541Z,46.72
2018-04-06T11:17:01.584Z,45.48
2018-04-06T11:18:01.326Z,47.37
2018-04-06T11:19:01.608Z,47.75
2018-04-06T11:20:01.374Z,48.23
2018-04-06T11:21:16.316Z,47.56
2018-04-06T11:22:01.693Z,48.23
2018-04-06T11:23:01.755Z,49.3
2018-04-06T11:24:01.468Z,50.26
2018-04-06T11:25:01.492Z,50.07
2018-04-06T11:26:01.978Z,49.3
2018-04-06T11:28:01.571Z,49.49
2018-04-06T11:29:01.847Z,50.93
2018-04-06T11:30:01.886Z,50.67
2018-04-06T11:32:01.918Z,47.99
2018-04-06T11:33:01.679Z,47.68
2018-04-06T11:34:01.966Z,46.92
2018-04-06T11:35:01.991Z,46.8
2018-04-06T11:36:02.011Z,46.89
2018-04-06T11:37:02.032Z,47.06
2018-04-06T11:38:02.106Z,48.02
2018-04-06T11:39:02.079Z,48.33
2018-04-06T11:40:02.103Z,49.76
2018-04-06T11:41:02.133Z,51.09
2018-04-06T11:42:02.150Z,51.12
2018-04-06T11:43:02.175Z,49.78
2018-04-06T11:44:02.195Z,51.03
2018-04-06T11:45:01.959Z,50.64
2018-04-06T11:46:02.239Z,50.16
2018-04-06T11:47:02.264Z,49.21
2018-04-06T11:48:02.288Z,47.58
2018-04-06T11:49:02.313Z,47.49
2018-04-06T11:50:02.339Z,47.2
2018-04-06T11:51:02.356Z,48.16
2018-04-06T11:52:02.399Z,47.39
2018-04-06T11:53:17.062Z,47.58
2018-04-06T11:54:02.434Z,47.37
2018-04-06T11:55:02.191Z,49.18
2018-04-06T11:56:02.472Z,49.76
2018-04-06T11:57:02.500Z,49.21
2018-04-06T11:58:02.262Z,50.24
2018-04-06T12:00:02.572Z,50.26
2018-04-06T12:01:02.589Z,50.35
2018-04-06T12:02:02.610Z,47.68
2018-04-06T12:03:02.634Z,50.16
2018-04-06T12:04:02.658Z,49.69
2018-04-06T12:05:02.681Z,47.78
2018-04-06T12:06:02.704Z,46.82
2018-04-06T12:07:02.726Z,48.93
2018-04-06T12:08:02.749Z,49.3
2018-04-06T12:09:17.431Z,47.97
2018-04-06T12:10:02.797Z,46.63
2018-04-06T12:11:02.825Z,46.7
2018-04-06T12:12:02.841Z,47.75
2018-04-06T12:13:02.902Z,45.84
2018-04-06T12:14:02.888Z,46.42
2018-04-06T12:15:02.912Z,45.84
2018-04-06T12:16:02.933Z,47.75
2018-04-06T12:17:02.960Z,47.01
2018-04-06T12:18:02.978Z,49.09
2018-04-06T12:20:02.764Z,49.69
2018-04-06T12:21:03.047Z,49.02
2018-04-06T12:22:02.809Z,46.82
2018-04-06T12:23:02.832Z,45.77
2018-04-06T12:24:02.858Z,46.13
2018-04-06T12:25:17.800Z,47.56
2018-04-06T12:27:03.184Z,45.84
2018-04-06T12:28:03.206Z,46.34
2018-04-06T12:29:03.233Z,48.54
2018-04-06T12:30:02.992Z,50.45
2018-04-06T12:33:03.333Z,45.67
2018-04-06T12:34:03.341Z,48.04
2018-04-06T12:35:03.370Z,47.11
2018-04-06T12:36:03.388Z,47.2
2018-04-06T12:37:03.412Z,46.32
2018-04-06T12:38:03.437Z,47.47
2018-04-06T12:39:03.458Z,47.11
2018-04-06T12:40:03.481Z,47.58
2018-04-06T12:41:18.162Z,46.63
2018-04-06T12:42:03.528Z,46.25
2018-04-06T12:43:03.610Z,46.15
2018-04-06T12:44:03.572Z,47.2
2018-04-06T12:45:03.594Z,48.93
2018-04-06T12:46:03.626Z,48.07
2018-04-06T12:47:03.739Z,46.92
2018-04-06T12:48:03.675Z,47.39
2018-04-06T12:49:03.685Z,47.49
2018-04-06T12:50:03.711Z,47.13
2018-04-06T12:51:03.730Z,47.23
2018-04-06T12:52:03.496Z,47.11
2018-04-06T12:53:03.781Z,46.34
2018-04-06T12:54:03.800Z,45.94
2018-04-06T12:55:03.844Z,47.75
2018-04-06T12:56:18.506Z,47.68
2018-04-06T12:57:03.869Z,46.82
2018-04-06T12:58:03.897Z,46.44
2018-04-06T12:59:03.653Z,45.39
2018-04-06T13:00:03.676Z,45.2
2018-04-06T13:01:03.958Z,48.35
2018-04-06T13:02:03.986Z,48.83
2018-04-06T13:03:04.116Z,46.44
2018-04-06T13:04:04.134Z,46.63
2018-04-06T13:05:03.789Z,45.2
2018-04-06T13:07:03.835Z,45.58
2018-04-06T13:08:03.858Z,45.58
2018-04-06T13:09:04.142Z,44.81
2018-04-06T13:10:04.169Z,46.44
2018-04-06T13:11:04.188Z,45.6
2018-04-06T13:12:03.949Z,44.55
2018-04-06T13:13:03.970Z,46.08
2018-04-06T13:15:04.122Z,43.48
2018-04-06T13:16:04.047Z,42.9
2018-04-06T13:18:04.085Z,41.95
2018-04-06T13:19:04.388Z,41.95
2018-04-06T13:20:04.130Z,42.11
2018-04-06T13:21:04.152Z,41.83
2018-04-06T13:22:04.434Z,42.31
2018-04-06T13:23:04.201Z,42.79
2018-04-06T13:24:04.480Z,42.9
2018-04-06T13:25:04.243Z,43.09
2018-04-06T13:26:04.265Z,42.9
2018-04-06T13:27:04.549Z,42.43
2018-04-06T13:28:19.229Z,42.81
2018-04-06T13:29:04.593Z,43.09
2018-04-06T13:30:04.356Z,42.24
2018-04-06T13:31:04.414Z,41.38
2018-04-06T13:32:04.400Z,43.84
2018-04-06T13:33:04.424Z,43
2018-04-06T13:34:04.705Z,42.81
2018-04-06T13:35:04.468Z,42.33
2018-04-06T13:36:04.491Z,43
2018-04-06T13:37:04.515Z,41.95
2018-04-06T13:38:04.538Z,43.84
2018-04-06T13:39:04.560Z,42.81
2018-04-06T13:40:04.581Z,42.11
2018-04-06T13:41:04.864Z,42.5
2018-04-06T13:42:04.887Z,42.4
2018-04-06T13:43:04.909Z,41.64
2018-04-06T13:44:19.593Z,41.14
2018-04-06T13:45:04.957Z,41.52
2018-04-06T13:46:04.715Z,41.45
2018-04-06T13:47:04.999Z,42.21
2018-04-06T13:48:04.761Z,42.97
2018-04-06T13:49:04.783Z,43.26
2018-04-06T13:51:05.088Z,42.11
2018-04-06T13:52:05.111Z,42.97
2018-04-06T13:53:05.131Z,44.6
2018-04-06T13:54:05.154Z,45.2
2018-04-06T13:55:04.919Z,42.9
2018-04-06T13:56:04.941Z,42.79
2018-04-06T13:57:05.224Z,43.19
2018-04-06T13:58:04.984Z,43.48
2018-04-06T13:59:05.270Z,45.39
2018-04-06T14:00:19.948Z,45.39
2018-04-06T14:01:05.751Z,43.09
2018-04-06T14:02:05.338Z,41.95
2018-04-06T14:05:05.407Z,44.91